createdAt,value
2022-10-29T00:02:34.000Z,20.04
2022-10-29T00:07:34.000Z,21.08
2022-10-29T00:12:34.000Z,21.41
2022-10-29T00:17:35.000Z,20.63
2022-10-29T00:22:35.000Z,19.94
2022-10-29T00:27:34.000Z,21.15
2022-10-29T00:32:35.000Z,20.62
2022-10-29T00:42:35.000Z,19.34
2022-10-29T00:47:35.000Z,19.52
2022-10-29T00:52:34.000Z,20.79
2022-10-29T00:57:34.000Z,20.79
2022-10-29T01:02:35.000Z,19.49
2022-10-29T01:07:34.000Z,24.12
2022-10-29T01:12:35.000Z,21.96
2022-10-29T01:17:34.000Z,21.2
2022-10-29T01:22:35.000Z,19.34
2022-10-29T01:27:34.000Z,16.7
2022-10-29T01:32:35.000Z,16.29
2022-10-29T01:37:34.000Z,16.55
2022-10-29T01:42:34.000Z,16.36
2022-10-29T01:47:34.000Z,15.79
2022-10-29T01:52:35.000Z,15.87
2022-10-29T01:57:35.000Z,15.73
2022-10-29T02:02:34.000Z,17.42
2022-10-29T02:07:35.000Z,22.25
2022-10-29T02:12:34.000Z,22.25
2022-10-29T02:22:35.000Z,25.2
2022-10-29T02:27:35.000Z,27.27
2022-10-29T02:32:34.000Z,25.07
2022-10-29T02:37:35.000Z,27.56
2022-10-29T02:47:34.000Z,22.93
2022-10-29T02:52:35.000Z,22.72
2022-10-29T02:57:34.000Z,22.15
2022-10-29T03:02:35.000Z,20.11
2022-10-29T03:07:34.000Z,15
2022-10-29T03:12:35.000Z,15.94
2022-10-29T03:17:35.000Z,15.93
2022-10-29T03:22:35.000Z,13.8
2022-10-29T03:27:34.000Z,12.94
2022-10-29T03:37:35.000Z,13.13
2022-10-29T03:42:34.000Z,13.34
2022-10-29T03:47:34.000Z,14.78
2022-10-29T03:52:35.000Z,15.14
2022-10-29T03:57:34.000Z,16.29
2022-10-29T04:02:35.000Z,18.02
2022-10-29T04:07:35.000Z,17.74
2022-10-29T04:12:34.000Z,20.46
2022-10-29T04:17:35.000Z,21.5
2022-10-29T04:26:04.000Z,21.81
2022-10-29T04:32:34.000Z,22.61
2022-10-29T04:37:35.000Z,23.21
2022-10-29T04:42:34.000Z,23.21
2022-10-29T04:47:35.000Z,20.33
2022-10-29T04:52:34.000Z,21.3
2022-10-29T04:57:34.000Z,20.29
2022-10-29T05:02:35.000Z,18.95
2022-10-29T05:12:34.000Z,15.82
2022-10-29T05:17:35.000Z,14.96
2022-10-29T05:22:35.000Z,14.14
2022-10-29T05:27:34.000Z,14.56
2022-10-29T05:37:35.000Z,14.41
2022-10-29T05:42:35.000Z,12.53
2022-10-29T05:47:34.000Z,12.34
2022-10-29T05:52:35.000Z,11.15
2022-10-29T05:57:34.000Z,10.52
2022-10-29T06:02:35.000Z,10.86
2022-10-29T06:07:35.000Z,11.22
2022-10-29T06:12:35.000Z,11.56
2022-10-29T06:17:34.000Z,11.91
2022-10-29T06:22:34.000Z,12.3
2022-10-29T06:27:34.000Z,13.19
2022-10-29T06:32:34.000Z,12.48
2022-10-29T06:37:35.000Z,12.24
2022-10-29T06:42:35.000Z,13.12
2022-10-29T06:47:35.000Z,13.57
2022-10-29T06:52:35.000Z,13.57
2022-10-29T06:57:34.000Z,12.32
2022-10-29T07:02:34.000Z,13.19
2022-10-29T07:07:35.000Z,13.25
2022-10-29T07:12:34.000Z,12.69
2022-10-29T07:17:34.000Z,13.1
2022-10-29T07:22:35.000Z,12.28
2022-10-29T07:27:35.000Z,11.7
2022-10-29T07:32:35.000Z,11.21
2022-10-29T07:37:35.000Z,11.61
2022-10-29T07:42:34.000Z,12.53
2022-10-29T07:52:35.000Z,13.02
2022-10-29T07:57:35.000Z,12.27
2022-10-29T08:02:34.000Z,13.12
2022-10-29T08:07:35.000Z,12.81
2022-10-29T08:12:35.000Z,13.78
2022-10-29T08:17:34.000Z,12.8
2022-10-29T08:22:35.000Z,13.09
2022-10-29T08:27:35.000Z,12.59
2022-10-29T08:32:35.000Z,11.59
2022-10-29T08:37:34.000Z,11.59
2022-10-29T08:42:35.000Z,11.83
2022-10-29T08:47:34.000Z,12.97
2022-10-29T08:52:35.000Z,12.63
2022-10-29T08:57:34.000Z,13.06
2022-10-29T09:07:35.000Z,16.4
2022-10-29T09:12:35.000Z,15.99
2022-10-29T09:17:34.000Z,17.27
2022-10-29T09:22:34.000Z,12.62
2022-10-29T09:27:35.000Z,11.72
2022-10-29T09:32:34.000Z,12.2
2022-10-29T09:37:35.000Z,12.65
2022-10-29T09:42:35.000Z,13.03
2022-10-29T09:47:35.000Z,12.33
2022-10-29T09:52:35.000Z,12.33
2022-10-29T09:57:35.000Z,12.78
2022-10-29T10:02:35.000Z,19.86
2022-10-29T10:07:34.000Z,12.33
2022-10-29T10:12:35.000Z,12.48
2022-10-29T10:17:34.000Z,11.17
2022-10-29T10:22:34.000Z,12.59
2022-10-29T10:27:35.000Z,13.4
2022-10-29T10:32:34.000Z,13.84
2022-10-29T10:37:35.000Z,13.28
2022-10-29T10:42:35.000Z,12.93
2022-10-29T10:47:34.000Z,14.14
2022-10-29T10:52:34.000Z,18.96
2022-10-29T10:57:34.000Z,20.68
2022-10-29T11:02:35.000Z,21.45
2022-10-29T11:07:34.000Z,21.45
2022-10-29T11:12:35.000Z,22.28
2022-10-29T11:17:35.000Z,22.2
2022-10-29T11:22:34.000Z,21.28
2022-10-29T11:27:35.000Z,25.31
2022-10-29T11:32:34.000Z,23.65
2022-10-29T11:37:35.000Z,26.52
2022-10-29T11:42:35.000Z,25.11
2022-10-29T11:47:34.000Z,24.02
2022-10-29T11:52:34.000Z,25.59
2022-10-29T11:57:34.000Z,21.52
2022-10-29T12:02:34.000Z,22.21
2022-10-29T12:12:34.000Z,21.43
2022-10-29T12:17:35.000Z,22.07
2022-10-29T12:22:34.000Z,21.48
2022-10-29T12:27:35.000Z,19.73
2022-10-29T12:32:35.000Z,20.02
2022-10-29T12:37:34.000Z,20
2022-10-29T12:42:35.000Z,19.66
2022-10-29T12:47:34.000Z,19.66
2022-10-29T12:52:34.000Z,19.17
2022-10-29T12:57:35.000Z,20.19
2022-10-29T13:02:34.000Z,19.37
2022-10-29T13:07:35.000Z,17.38
2022-10-29T13:12:35.000Z,18.46
2022-10-29T13:17:34.000Z,17.83
2022-10-29T13:22:35.000Z,17.75
2022-10-29T13:32:34.000Z,18.51
2022-10-29T13:37:34.000Z,19.45
2022-10-29T13:42:35.000Z,19.27
2022-10-29T13:52:35.000Z,20.19
2022-10-29T13:57:35.000Z,18.24
2022-10-29T14:02:35.000Z,15.88
2022-10-29T14:07:35.000Z,17.95
2022-10-29T14:12:35.000Z,18.53
2022-10-29T14:17:35.000Z,18.53
2022-10-29T14:22:34.000Z,17.94
2022-10-29T14:27:35.000Z,16.79
2022-10-29T14:32:35.000Z,16.1
2022-10-29T14:37:34.000Z,16.65
2022-10-29T14:42:34.000Z,16.45
2022-10-29T14:47:42.000Z,16.4
2022-10-29T14:52:34.000Z,17.68
2022-10-29T14:57:35.000Z,17.68
2022-10-29T15:02:47.000Z,19.09
2022-10-29T15:07:34.000Z,18.47
2022-10-29T15:12:34.000Z,21.42
2022-10-29T15:17:35.000Z,19.76
2022-10-29T15:22:34.000Z,18.36
2022-10-29T15:32:40.000Z,16.04
2022-10-29T15:37:34.000Z,17.54
2022-10-29T15:42:35.000Z,17.85
2022-10-29T15:47:34.000Z,17.01
2022-10-29T15:52:35.000Z,17.01
2022-10-29T15:57:34.000Z,16.22
2022-10-29T16:02:35.000Z,15.19
2022-10-29T16:07:35.000Z,15.06
2022-10-29T16:12:34.000Z,13.17
2022-10-29T16:17:35.000Z,13.45
2022-10-29T16:22:35.000Z,13.55
2022-10-29T16:27:35.000Z,12.76
2022-10-29T16:32:34.000Z,14.77
2022-10-29T16:37:35.000Z,17.47
2022-10-29T16:42:34.000Z,16.98
2022-10-29T16:47:35.000Z,17.41
2022-10-29T16:52:39.000Z,16.63
2022-10-29T16:57:34.000Z,16.31
2022-10-29T17:02:34.000Z,16.33
2022-10-29T17:07:35.000Z,16.33
2022-10-29T17:12:35.000Z,15.41
2022-10-29T17:17:34.000Z,15.66
2022-10-29T17:22:35.000Z,15.99
2022-10-29T17:27:34.000Z,18.07
2022-10-29T17:32:34.000Z,17.51
2022-10-29T17:37:35.000Z,18.85
2022-10-29T17:42:35.000Z,18.43
2022-10-29T17:47:35.000Z,16.74
2022-10-29T17:52:35.000Z,17.89
2022-10-29T17:57:35.000Z,18.74
2022-10-29T18:02:35.000Z,18.62
2022-10-29T18:07:34.000Z,16.75
2022-10-29T18:12:35.000Z,16.67
2022-10-29T18:17:34.000Z,16.61
2022-10-29T18:22:35.000Z,16.61
2022-10-29T18:27:35.000Z,17.16
2022-10-29T18:32:35.000Z,16.12
2022-10-29T18:37:34.000Z,15.29
2022-10-29T18:42:35.000Z,16.77
2022-10-29T18:47:35.000Z,16.4
2022-10-29T18:52:35.000Z,17.07
2022-10-29T18:57:34.000Z,15.54
2022-10-29T19:02:35.000Z,15.07
2022-10-29T19:07:35.000Z,17.52
2022-10-29T19:12:35.000Z,17.99
2022-10-29T19:17:35.000Z,15.82
2022-10-29T19:22:35.000Z,14.9
2022-10-29T19:27:34.000Z,15.94
2022-10-29T19:32:34.000Z,14.94
2022-10-29T19:37:35.000Z,14.94
2022-10-29T19:42:34.000Z,17.22
2022-10-29T19:47:34.000Z,17.44
2022-10-29T19:52:34.000Z,17.95
2022-10-29T19:57:35.000Z,18.93
2022-10-29T20:02:35.000Z,18.05
2022-10-29T20:07:35.000Z,15.4
2022-10-29T20:12:35.000Z,16.99
2022-10-29T20:17:35.000Z,16.34
2022-10-29T20:22:34.000Z,15.85
2022-10-29T20:27:34.000Z,13.89
2022-10-29T20:32:34.000Z,13.35
2022-10-29T20:37:35.000Z,14.93
2022-10-29T20:42:34.000Z,17.71
2022-10-29T20:47:35.000Z,16.56
2022-10-29T20:52:34.000Z,16.56
2022-10-29T20:57:35.000Z,13
2022-10-29T21:02:35.000Z,13.85
2022-10-29T21:07:35.000Z,15.87
2022-10-29T21:12:35.000Z,15.99
2022-10-29T21:17:34.000Z,13.7
2022-10-29T21:22:35.000Z,12.96
2022-10-29T21:27:35.000Z,12.35
2022-10-29T21:32:34.000Z,12.09
2022-10-29T21:42:35.000Z,10.76
2022-10-29T21:47:35.000Z,11.92
2022-10-29T21:52:35.000Z,11.11
2022-10-29T21:57:35.000Z,11.96
2022-10-29T22:02:34.000Z,11.33
2022-10-29T22:07:34.000Z,11.46
2022-10-29T22:12:34.000Z,12
2022-10-29T22:17:34.000Z,12.05
2022-10-29T22:22:35.000Z,12.05
2022-10-29T22:27:35.000Z,12.64
2022-10-29T22:32:35.000Z,12.15
2022-10-29T22:37:35.000Z,11.47
2022-10-29T22:42:34.000Z,11.41
2022-10-29T22:47:35.000Z,11.44
2022-10-29T22:52:35.000Z,11.05
2022-10-29T22:57:34.000Z,11.28
2022-10-29T23:02:34.000Z,11.51
2022-10-29T23:07:34.000Z,11.29
2022-10-29T23:12:35.000Z,10.04
2022-10-29T23:17:34.000Z,9.63
2022-10-29T23:22:37.000Z,10.67
2022-10-29T23:27:34.000Z,10.37
2022-10-29T23:32:35.000Z,10.37
2022-10-29T23:37:35.000Z,11.58
2022-10-29T23:47:35.000Z,15.87
2022-10-29T23:52:35.000Z,15.13
2022-10-29T23:57:34.000Z,11.41
